createdAt,value
2023-06-14T00:00:58.038Z,617.00
2023-06-14T00:01:58.074Z,588.10
2023-06-14T00:02:57.999Z,591.90
2023-06-14T00:03:58.054Z,584.20
2023-06-14T00:04:57.934Z,587.80
2023-06-14T00:05:57.978Z,614.40
2023-06-14T00:06:57.938Z,629.10
2023-06-14T00:07:57.880Z,631.20
2023-06-14T00:08:57.885Z,627.20
2023-06-14T00:09:57.928Z,639.30
2023-06-14T00:10:57.901Z,643.70
2023-06-14T00:11:57.846Z,644.20
2023-06-14T00:12:57.863Z,620.30
2023-06-14T00:13:57.820Z,635.30
2023-06-14T00:14:57.867Z,634.70
2023-06-14T00:15:57.810Z,589.90
2023-06-14T00:16:57.877Z,600.70
2023-06-14T00:17:57.844Z,587.60
2023-06-14T00:18:57.776Z,574.00
2023-06-14T00:19:57.802Z,550.40
2023-06-14T00:20:57.755Z,529.80
2023-06-14T00:21:57.722Z,527.10
2023-06-14T00:22:57.734Z,459.10
2023-06-14T00:23:57.783Z,356.90
2023-06-14T00:24:57.747Z,361.50
2023-06-14T00:25:57.674Z,412.60
2023-06-14T00:26:57.674Z,425.10
2023-06-14T00:27:57.658Z,488.80
2023-06-14T00:28:57.709Z,448.10
2023-06-14T00:29:57.642Z,481.90
2023-06-14T00:30:57.630Z,490.40
2023-06-14T00:31:57.691Z,488.90
2023-06-14T00:32:57.620Z,480.60
2023-06-14T00:33:57.639Z,500.50
2023-06-14T00:34:57.612Z,533.40
2023-06-14T00:35:57.567Z,531.70
2023-06-14T00:36:57.566Z,498.80
2023-06-14T00:37:57.611Z,523.80
2023-06-14T00:38:57.584Z,502.90
2023-06-14T00:39:57.536Z,512.40
2023-06-14T00:40:57.534Z,535.50
2023-06-14T00:41:57.507Z,541.70
2023-06-14T00:42:57.544Z,544.50
2023-06-14T00:43:57.510Z,549.40
2023-06-14T00:44:57.463Z,616.60
2023-06-14T00:45:57.497Z,624.90
2023-06-14T00:46:57.549Z,595.20
2023-06-14T00:47:57.535Z,607.20
2023-06-14T00:48:57.438Z,645.40
2023-06-14T00:49:57.423Z,616.00
2023-06-14T00:50:57.416Z,606.10
2023-06-14T00:51:57.446Z,652.80
2023-06-14T00:52:57.436Z,598.40
2023-06-14T00:53:57.373Z,637.40
2023-06-14T00:54:57.352Z,666.70
2023-06-14T00:55:57.320Z,598.00
2023-06-14T00:56:57.388Z,635.70
2023-06-14T00:57:57.342Z,619.60
2023-06-14T00:58:57.315Z,627.40
2023-06-14T00:59:57.305Z,595.40
2023-06-14T01:00:57.309Z,583.30
2023-06-14T01:01:57.362Z,595.80
2023-06-14T01:02:57.358Z,605.20
2023-06-14T01:03:57.346Z,600.80
2023-06-14T01:04:57.246Z,610.80
2023-06-14T01:05:57.275Z,605.20
2023-06-14T01:06:57.269Z,583.30
2023-06-14T01:07:57.204Z,567.40
2023-06-14T01:08:57.188Z,573.60
2023-06-14T01:09:57.174Z,534.60
2023-06-14T01:10:57.233Z,546.10
2023-06-14T01:11:57.157Z,533.10
2023-06-14T01:12:57.163Z,523.10
2023-06-14T01:13:57.146Z,494.50
2023-06-14T01:14:57.126Z,674.80
2023-06-14T01:15:57.262Z,699.00
2023-06-14T01:16:57.233Z,577.30
2023-06-14T01:17:57.132Z,502.20
2023-06-14T01:18:57.084Z,499.00
2023-06-14T01:19:57.119Z,500.80
2023-06-14T01:20:57.101Z,512.60
2023-06-14T01:21:57.033Z,651.20
2023-06-14T01:22:57.022Z,685.20
2023-06-14T01:23:57.126Z,475.30
2023-06-14T01:24:57.054Z,654.70
2023-06-14T01:25:57.012Z,565.20
2023-06-14T01:26:56.989Z,429.60
2023-06-14T01:27:56.992Z,406.80
2023-06-14T01:28:56.961Z,415.10
2023-06-14T01:29:57.029Z,405.90
2023-06-14T01:30:56.953Z,378.70
2023-06-14T01:31:56.934Z,375.30
2023-06-14T01:32:56.968Z,376.40
2023-06-14T01:33:56.940Z,386.60
2023-06-14T01:34:56.975Z,394.10
2023-06-14T01:35:56.878Z,388.30
2023-06-14T01:36:56.859Z,384.50
2023-06-14T01:37:56.863Z,380.20
2023-06-14T01:38:56.898Z,380.20
2023-06-14T01:39:56.847Z,351.70
2023-06-14T01:40:56.834Z,350.70
2023-06-14T01:41:56.837Z,343.30
2023-06-14T01:42:56.815Z,338.40
2023-06-14T01:43:56.851Z,355.90
2023-06-14T01:44:56.779Z,348.00
2023-06-14T01:45:56.853Z,355.00
2023-06-14T01:46:56.758Z,361.80
2023-06-14T01:47:56.847Z,371.30
2023-06-14T01:48:56.791Z,375.40
2023-06-14T01:49:56.720Z,368.90
2023-06-14T01:50:56.704Z,390.10
2023-06-14T01:51:56.699Z,408.70
2023-06-14T01:52:56.756Z,404.00
2023-06-14T01:53:56.684Z,422.30
2023-06-14T01:54:56.681Z,413.90
2023-06-14T01:55:56.633Z,411.50
2023-06-14T01:56:56.638Z,424.70
2023-06-14T01:57:56.700Z,440.20
2023-06-14T01:58:56.647Z,458.20
2023-06-14T01:59:56.590Z,476.60
2023-06-14T02:00:56.702Z,477.30
2023-06-14T02:01:56.658Z,482.70
2023-06-14T02:02:56.629Z,465.30
2023-06-14T02:03:56.577Z,471.00
2023-06-14T02:04:56.543Z,481.90
2023-06-14T02:05:56.731Z,479.60
2023-06-14T02:06:56.632Z,513.10
2023-06-14T02:07:56.507Z,520.20
2023-06-14T02:08:56.500Z,538.20
2023-06-14T02:09:56.490Z,531.40
2023-06-14T02:10:56.476Z,531.60
2023-06-14T02:11:56.511Z,533.80
2023-06-14T02:12:56.509Z,538.90
2023-06-14T02:13:56.459Z,558.90
2023-06-14T02:14:56.467Z,567.30
2023-06-14T02:15:56.522Z,597.90
2023-06-14T02:16:56.453Z,529.60
2023-06-14T02:17:56.450Z,536.70
2023-06-14T02:18:56.371Z,524.90
2023-06-14T02:19:56.362Z,528.10
2023-06-14T02:20:56.408Z,544.10
2023-06-14T02:21:56.353Z,576.40
2023-06-14T02:22:56.355Z,541.20
2023-06-14T02:23:56.377Z,565.10
2023-06-14T02:25:02.060Z,551.60
2023-06-14T02:25:57.394Z,558.90
2023-06-14T02:26:56.291Z,546.40
2023-06-14T02:27:56.280Z,544.50
2023-06-14T02:28:56.276Z,527.70
2023-06-14T02:29:56.294Z,579.20
2023-06-14T02:30:56.303Z,571.40
2023-06-14T02:31:56.259Z,568.00
2023-06-14T02:32:56.244Z,521.90
2023-06-14T02:33:56.214Z,477.00
2023-06-14T02:34:56.253Z,474.60
2023-06-14T02:35:56.201Z,503.00
2023-06-14T02:36:56.193Z,494.50
2023-06-14T02:37:56.166Z,498.90
2023-06-14T02:38:56.153Z,476.70
2023-06-14T02:39:56.210Z,486.30
2023-06-14T02:40:56.132Z,473.50
2023-06-14T02:41:56.118Z,479.10
2023-06-14T02:42:56.110Z,484.10
2023-06-14T02:43:56.168Z,478.80
2023-06-14T02:44:56.131Z,471.30
2023-06-14T02:45:56.082Z,475.50
2023-06-14T02:46:56.050Z,471.80
2023-06-14T02:47:56.126Z,476.50
2023-06-14T02:48:56.120Z,518.80
2023-06-14T02:49:56.019Z,506.30
2023-06-14T02:50:55.998Z,505.50
2023-06-14T02:51:56.011Z,501.30
2023-06-14T02:52:55.994Z,505.10
2023-06-14T02:53:56.047Z,500.30
2023-06-14T02:54:55.976Z,472.60
2023-06-14T02:55:55.966Z,483.90
2023-06-14T02:56:55.939Z,482.10
2023-06-14T02:57:55.979Z,498.00
2023-06-14T02:58:55.968Z,483.70
2023-06-14T02:59:55.925Z,475.30
2023-06-14T03:00:55.954Z,458.70
2023-06-14T03:01:55.883Z,449.10
2023-06-14T03:02:56.269Z,452.20
2023-06-14T03:03:55.909Z,434.70
2023-06-14T03:04:55.847Z,426.00
2023-06-14T03:05:55.844Z,414.50
2023-06-14T03:06:55.829Z,401.70
2023-06-14T03:07:55.866Z,403.50
2023-06-14T03:08:55.811Z,424.90
2023-06-14T03:09:55.801Z,402.20
2023-06-14T03:10:55.782Z,397.30
2023-06-14T03:11:55.818Z,432.10
2023-06-14T03:12:55.799Z,540.20
2023-06-14T03:13:55.763Z,428.40
2023-06-14T03:14:55.743Z,466.90
2023-06-14T03:15:55.721Z,493.60
2023-06-14T03:16:55.818Z,461.30
2023-06-14T03:17:55.720Z,449.70
2023-06-14T03:18:55.671Z,479.20
2023-06-14T03:19:55.671Z,462.70
2023-06-14T03:20:55.669Z,496.40
2023-06-14T03:21:55.706Z,474.70
2023-06-14T03:22:55.641Z,457.60
2023-06-14T03:23:55.700Z,488.20
2023-06-14T03:24:55.615Z,420.90
2023-06-14T03:25:55.668Z,446.10
2023-06-14T03:26:55.643Z,487.00
2023-06-14T03:27:55.591Z,433.90
2023-06-14T03:28:55.578Z,447.40
2023-06-14T03:29:55.561Z,556.00
2023-06-14T03:30:55.658Z,470.10
2023-06-14T03:31:55.562Z,510.90
2023-06-14T03:32:55.626Z,477.60
2023-06-14T03:33:55.535Z,483.10
2023-06-14T03:34:55.517Z,487.30
2023-06-14T03:35:55.552Z,540.60
2023-06-14T03:36:55.510Z,558.60
2023-06-14T03:37:55.458Z,545.50
2023-06-14T03:38:55.462Z,564.40
2023-06-14T03:39:55.499Z,525.50
2023-06-14T03:40:55.478Z,521.30
2023-06-14T03:41:55.425Z,525.70
2023-06-14T03:42:55.421Z,534.80
2023-06-14T03:43:55.412Z,535.10
2023-06-14T03:44:55.437Z,514.50
2023-06-14T03:45:55.409Z,504.50
2023-06-14T03:46:55.383Z,437.90
2023-06-14T03:47:55.516Z,572.00
2023-06-14T03:48:55.340Z,577.40
2023-06-14T03:49:55.391Z,509.00
2023-06-14T03:50:55.325Z,578.30
2023-06-14T03:51:55.331Z,610.80
2023-06-14T03:52:55.301Z,480.90
2023-06-14T03:56:09.506Z,440.60
2023-06-14T03:56:56.271Z,458.90
2023-06-14T03:57:55.272Z,444.40
2023-06-14T03:58:55.304Z,470.40
2023-06-14T03:59:55.221Z,469.10
2023-06-14T04:00:55.219Z,486.40
2023-06-14T04:01:55.205Z,477.50
2023-06-14T04:02:55.275Z,502.50
2023-06-14T04:03:55.420Z,488.50
2023-06-14T04:04:55.214Z,482.90
2023-06-14T04:05:55.178Z,378.50
2023-06-14T04:06:55.160Z,323.00
2023-06-14T04:07:55.174Z,301.30
2023-06-14T04:08:55.161Z,288.30
2023-06-14T04:09:55.125Z,257.80
2023-06-14T04:10:55.094Z,391.40
2023-06-14T04:11:55.113Z,359.80
2023-06-14T04:12:55.159Z,250.60
2023-06-14T04:13:55.079Z,271.00
2023-06-14T04:14:56.942Z,493.80
2023-06-14T04:15:56.041Z,378.60
2023-06-14T04:16:55.017Z,449.60
2023-06-14T04:17:55.164Z,483.40
2023-06-14T04:18:54.991Z,519.10
2023-06-14T04:19:54.997Z,503.90
2023-06-14T04:20:54.977Z,516.20
2023-06-14T04:21:55.008Z,481.20
2023-06-14T04:22:55.018Z,339.20
2023-06-14T04:23:55.036Z,504.00
2023-06-14T04:25:04.856Z,546.30
2023-06-14T04:25:55.922Z,467.90
2023-06-14T04:26:54.948Z,356.30
2023-06-14T04:27:54.924Z,552.90
2023-06-14T04:28:54.893Z,552.50
2023-06-14T04:29:54.872Z,434.30
2023-06-14T04:30:54.918Z,350.20
2023-06-14T04:31:57.067Z,519.30
2023-06-14T04:32:55.212Z,569.80
2023-06-14T04:33:54.991Z,402.30
2023-06-14T04:34:54.848Z,560.20
2023-06-14T04:35:54.872Z,553.40
2023-06-14T04:36:54.886Z,518.50
2023-06-14T04:37:55.017Z,580.40
2023-06-14T04:38:54.760Z,470.90
2023-06-14T04:39:54.784Z,600.70
2023-06-14T04:40:54.789Z,390.30
2023-06-14T04:41:54.728Z,608.00
2023-06-14T04:42:54.730Z,210.50
2023-06-14T04:43:54.736Z,503.80
2023-06-14T04:44:54.738Z,644.90
2023-06-14T04:45:54.781Z,597.60
2023-06-14T04:46:54.654Z,534.40
2023-06-14T04:47:54.739Z,614.10
2023-06-14T04:48:54.674Z,470.60
2023-06-14T04:49:54.715Z,422.90
2023-06-14T04:50:54.656Z,495.00
2023-06-14T04:51:54.622Z,425.80
2023-06-14T04:52:54.641Z,482.90
2023-06-14T04:53:54.635Z,519.80
2023-06-14T04:54:54.690Z,282.60
2023-06-14T04:55:54.586Z,612.20
2023-06-14T04:56:54.579Z,198.40
2023-06-14T04:57:54.584Z,538.90
2023-06-14T04:58:54.586Z,201.00
2023-06-14T04:59:54.596Z,247.10
2023-06-14T05:00:54.597Z,474.90
2023-06-14T05:01:54.635Z,258.50
2023-06-14T05:02:54.796Z,485.70
2023-06-14T05:03:54.588Z,177.20
2023-06-14T05:04:54.506Z,525.90
2023-06-14T05:05:54.486Z,144.60
2023-06-14T05:06:54.451Z,522.30
2023-06-14T05:07:54.464Z,187.40
2023-06-14T05:08:54.470Z,492.30
2023-06-14T05:09:54.442Z,107.80
2023-06-14T05:10:54.414Z,460.10
2023-06-14T05:11:54.392Z,111.00
2023-06-14T05:12:54.416Z,414.80
2023-06-14T05:13:54.422Z,115.40
2023-06-14T05:14:54.381Z,402.40
2023-06-14T05:15:54.404Z,334.70
2023-06-14T05:16:54.331Z,177.50
2023-06-14T05:17:54.576Z,406.50
2023-06-14T05:18:54.364Z,230.90
2023-06-14T05:19:54.320Z,409.30
2023-06-14T05:20:54.294Z,329.80
2023-06-14T05:21:54.273Z,374.20
2023-06-14T05:22:54.306Z,194.20
2023-06-14T05:23:54.299Z,349.60
2023-06-14T05:24:54.245Z,184.40
2023-06-14T05:25:54.232Z,233.10
2023-06-14T05:26:54.304Z,410.50
2023-06-14T05:27:54.268Z,197.80
2023-06-14T05:28:54.197Z,435.60
2023-06-14T05:29:54.173Z,367.10
2023-06-14T05:30:54.160Z,388.60
2023-06-14T05:31:54.325Z,329.80
2023-06-14T05:32:54.216Z,369.60
2023-06-14T05:33:54.187Z,99.40
2023-06-14T05:34:54.133Z,155.80
2023-06-14T05:35:54.105Z,374.20
2023-06-14T05:36:54.133Z,138.70
2023-06-14T05:37:54.094Z,386.30
2023-06-14T05:38:54.108Z,123.10
2023-06-14T05:39:54.061Z,316.10
2023-06-14T05:40:54.084Z,289.50
2023-06-14T05:41:54.086Z,409.20
2023-06-14T05:42:54.026Z,415.40
2023-06-14T05:43:54.011Z,374.60
2023-06-14T05:44:54.015Z,102.00
2023-06-14T05:45:54.056Z,430.30
2023-06-14T05:46:54.044Z,100.70
2023-06-14T05:47:54.130Z,428.40
2023-06-14T05:48:53.976Z,90.50
2023-06-14T05:49:53.953Z,372.50
2023-06-14T05:50:53.980Z,82.20
2023-06-14T05:51:53.924Z,100.40
2023-06-14T05:52:53.915Z,223.60
2023-06-14T05:53:53.939Z,371.20
2023-06-14T05:54:53.958Z,284.50
2023-06-14T05:55:53.934Z,107.00
2023-06-14T05:56:53.878Z,385.00
2023-06-14T05:57:53.868Z,370.30
2023-06-14T05:58:53.845Z,207.40
2023-06-14T05:59:53.895Z,366.20
2023-06-14T06:00:53.836Z,124.00
2023-06-14T06:01:53.845Z,148.00
2023-06-14T06:02:53.961Z,426.40
2023-06-14T06:03:53.911Z,386.20
2023-06-14T06:04:53.817Z,143.70
2023-06-14T06:05:53.799Z,389.30
2023-06-14T06:06:53.737Z,265.10
2023-06-14T06:07:53.732Z,418.90
2023-06-14T06:08:53.768Z,199.30
2023-06-14T06:09:53.712Z,376.20
2023-06-14T06:10:53.730Z,409.10
2023-06-14T06:11:54.633Z,258.50
2023-06-14T06:12:53.701Z,417.00
2023-06-14T06:13:53.733Z,183.20
2023-06-14T06:14:53.676Z,361.10
2023-06-14T06:15:53.651Z,273.10
2023-06-14T06:16:53.807Z,356.10
2023-06-14T06:17:56.625Z,310.10
2023-06-14T06:18:53.708Z,249.10
2023-06-14T06:19:53.606Z,273.30
2023-06-14T06:20:53.621Z,369.90
2023-06-14T06:21:53.576Z,296.20
2023-06-14T06:22:53.632Z,362.40
2023-06-14T06:23:53.569Z,216.40
2023-06-14T06:24:53.544Z,314.60
2023-06-14T06:25:53.549Z,209.50
2023-06-14T06:26:53.548Z,215.10
2023-06-14T06:27:53.562Z,248.70
2023-06-14T06:28:53.521Z,259.30
2023-06-14T06:29:53.494Z,267.10
2023-06-14T06:30:53.550Z,278.80
2023-06-14T06:31:53.513Z,278.30
2023-06-14T06:32:53.529Z,217.60
2023-06-14T06:33:53.466Z,271.30
2023-06-14T06:34:53.436Z,241.10
2023-06-14T06:35:53.400Z,250.80
2023-06-14T06:36:53.462Z,237.40
2023-06-14T06:37:53.404Z,287.30
2023-06-14T06:38:53.396Z,205.60
2023-06-14T06:39:53.350Z,157.60
2023-06-14T06:40:53.399Z,152.80
2023-06-14T06:41:53.410Z,164.10
2023-06-14T06:42:53.328Z,169.50
2023-06-14T06:43:53.354Z,195.30
2023-06-14T06:44:53.301Z,218.00
2023-06-14T06:45:53.377Z,230.40
2023-06-14T06:46:53.344Z,245.80
2023-06-14T06:47:53.352Z,217.00
2023-06-14T06:48:53.270Z,216.80
2023-06-14T06:49:53.260Z,166.60
2023-06-14T06:50:53.306Z,131.40
2023-06-14T06:51:53.256Z,121.20
2023-06-14T06:52:53.274Z,127.00
2023-06-14T06:53:53.213Z,109.80
2023-06-14T06:54:53.219Z,88.10
2023-06-14T06:55:53.288Z,85.70
2023-06-14T06:56:53.197Z,81.40
2023-06-14T06:57:53.158Z,76.40
2023-06-14T06:58:53.167Z,78.00
2023-06-14T06:59:53.214Z,163.40
2023-06-14T07:00:53.213Z,113.60
2023-06-14T07:01:54.866Z,120.80
2023-06-14T07:02:53.130Z,49.60
2023-06-14T07:03:53.078Z,62.50
2023-06-14T07:04:53.164Z,70.70
2023-06-14T07:05:53.125Z,88.50
2023-06-14T07:06:53.091Z,98.40
2023-06-14T07:07:53.887Z,93.10
2023-06-14T07:08:53.086Z,87.90
2023-06-14T07:09:53.080Z,165.00
2023-06-14T07:10:53.048Z,92.00
2023-06-14T07:11:53.050Z,92.60
2023-06-14T07:12:53.034Z,86.00
2023-06-14T07:13:53.052Z,80.60
2023-06-14T07:14:52.986Z,77.00
2023-06-14T07:15:52.951Z,89.60
2023-06-14T07:16:52.958Z,83.80
2023-06-14T07:17:52.999Z,81.70
2023-06-14T07:18:52.964Z,85.90
2023-06-14T07:19:52.922Z,89.10
2023-06-14T07:20:52.920Z,84.30
2023-06-14T07:21:52.894Z,78.70
2023-06-14T07:22:52.918Z,70.20
2023-06-14T07:23:52.932Z,67.10
2023-06-14T07:24:52.874Z,62.60
2023-06-14T07:25:52.849Z,53.40
2023-06-14T07:26:52.835Z,48.20
2023-06-14T07:27:52.883Z,42.10
2023-06-14T07:28:52.802Z,36.60
2023-06-14T07:29:52.828Z,36.10
2023-06-14T07:30:52.777Z,33.40
2023-06-14T07:31:52.777Z,33.50
2023-06-14T07:32:52.852Z,25.50
2023-06-14T07:33:52.837Z,26.50
2023-06-14T07:34:52.739Z,33.50
2023-06-14T07:35:52.746Z,41.30
2023-06-14T07:36:52.779Z,42.40
2023-06-14T07:37:52.794Z,35.40
2023-06-14T07:38:52.710Z,44.00
2023-06-14T07:39:52.671Z,41.80
2023-06-14T07:40:52.683Z,39.20
2023-06-14T07:41:52.715Z,43.80
2023-06-14T07:42:52.650Z,41.80
2023-06-14T07:43:52.636Z,40.20
2023-06-14T07:44:52.674Z,40.90
2023-06-14T07:46:06.494Z,34.20
2023-06-14T07:46:53.655Z,40.40
2023-06-14T07:47:52.683Z,46.60
2023-06-14T07:48:52.743Z,48.50
2023-06-14T07:49:52.573Z,52.60
2023-06-14T07:50:52.609Z,54.50
2023-06-14T07:51:52.603Z,62.20
2023-06-14T07:52:52.682Z,67.80
2023-06-14T07:53:52.525Z,69.30
2023-06-14T07:54:52.525Z,77.50
2023-06-14T07:55:53.860Z,72.00
2023-06-14T07:56:52.481Z,72.50
2023-06-14T07:57:52.461Z,63.40
2023-06-14T07:58:52.482Z,62.80
2023-06-14T07:59:52.479Z,41.20
2023-06-14T08:00:52.489Z,32.20
2023-06-14T08:01:52.444Z,32.90
2023-06-14T08:02:54.323Z,50.90
2023-06-14T08:03:53.465Z,38.20
2023-06-14T08:04:52.470Z,37.70
2023-06-14T08:05:52.400Z,36.60
2023-06-14T08:06:52.502Z,36.50
2023-06-14T08:07:52.389Z,35.60
2023-06-14T08:08:52.371Z,41.50
2023-06-14T08:09:52.404Z,44.80
2023-06-14T08:10:52.368Z,39.40
2023-06-14T08:11:52.324Z,35.80
2023-06-14T08:12:52.328Z,30.40
2023-06-14T08:13:52.370Z,35.20
2023-06-14T08:15:01.396Z,33.00
2023-06-14T08:15:53.312Z,33.70
2023-06-14T08:16:52.298Z,34.20
2023-06-14T08:17:52.328Z,30.30
2023-06-14T08:18:52.338Z,25.80
2023-06-14T08:19:52.249Z,26.90
2023-06-14T08:20:52.237Z,29.80
2023-06-14T08:21:52.257Z,22.00
2023-06-14T08:22:52.189Z,21.10
2023-06-14T08:23:52.250Z,21.10
2023-06-14T08:24:52.192Z,21.50
2023-06-14T08:25:52.203Z,25.10
2023-06-14T08:26:52.166Z,20.30
2023-06-14T08:27:52.227Z,23.10
2023-06-14T08:28:52.252Z,20.10
2023-06-14T08:29:52.144Z,24.10
2023-06-14T08:30:52.159Z,29.50
2023-06-14T08:31:52.141Z,32.20
2023-06-14T08:33:02.292Z,32.40
2023-06-14T08:33:53.259Z,30.90
2023-06-14T08:35:04.118Z,32.70
2023-06-14T08:35:53.070Z,33.30
2023-06-14T08:36:52.090Z,32.40
2023-06-14T08:37:52.106Z,34.10
2023-06-14T08:38:52.011Z,33.40
2023-06-14T08:39:52.034Z,34.70
2023-06-14T08:40:52.007Z,33.30
2023-06-14T08:41:52.099Z,30.90
2023-06-14T08:42:52.068Z,29.40
2023-06-14T08:43:51.998Z,29.50
2023-06-14T08:44:51.957Z,25.10
2023-06-14T08:45:51.987Z,25.10
2023-06-14T08:46:51.997Z,27.60
2023-06-14T08:47:52.044Z,32.00
2023-06-14T08:48:51.969Z,33.20
2023-06-14T08:49:51.954Z,39.90
2023-06-14T08:50:54.255Z,52.70
2023-06-14T08:51:51.891Z,78.30
2023-06-14T08:52:51.868Z,60.40
2023-06-14T08:53:51.867Z,51.80
2023-06-14T08:54:51.847Z,44.30
2023-06-14T08:55:51.901Z,45.70
2023-06-14T08:56:51.829Z,45.90
2023-06-14T08:57:51.799Z,39.50
2023-06-14T08:58:51.817Z,35.40
2023-06-14T08:59:51.767Z,36.50
2023-06-14T09:00:51.860Z,38.80
2023-06-14T09:02:08.197Z,50.30
2023-06-14T09:02:52.759Z,55.30
2023-06-14T09:03:51.885Z,67.40
2023-06-14T09:04:51.789Z,57.00
2023-06-14T09:05:51.768Z,63.60
2023-06-14T09:06:51.723Z,51.80
2023-06-14T09:07:51.726Z,50.50
2023-06-14T09:08:51.671Z,59.40
2023-06-14T09:10:06.294Z,78.50
2023-06-14T09:10:52.729Z,84.30
2023-06-14T09:11:51.676Z,93.40
2023-06-14T09:12:51.650Z,75.80
2023-06-14T09:13:51.628Z,74.60
2023-06-14T09:14:51.681Z,78.70
2023-06-14T09:15:51.601Z,71.50
2023-06-14T09:16:51.628Z,62.10
2023-06-14T09:17:51.628Z,79.40
2023-06-14T09:18:51.610Z,59.10
2023-06-14T09:19:51.621Z,50.60
2023-06-14T09:20:51.564Z,39.60
2023-06-14T09:21:51.538Z,44.20
2023-06-14T09:22:51.526Z,29.10
2023-06-14T09:23:51.555Z,26.50
2023-06-14T09:24:51.522Z,22.30
2023-06-14T09:25:51.511Z,21.00
2023-06-14T09:26:51.465Z,29.10
2023-06-14T09:27:51.471Z,19.70
2023-06-14T09:28:51.489Z,21.90
2023-06-14T09:29:51.425Z,30.30
2023-06-14T09:30:51.480Z,36.00
2023-06-14T09:31:51.441Z,32.20
2023-06-14T09:32:51.493Z,33.80
2023-06-14T09:33:51.513Z,42.40
2023-06-14T09:34:51.389Z,48.50
2023-06-14T09:35:51.391Z,53.30
2023-06-14T09:36:51.384Z,54.30
2023-06-14T09:37:51.403Z,54.50
2023-06-14T09:38:51.435Z,54.40
2023-06-14T09:39:51.355Z,53.90
2023-06-14T09:40:51.353Z,54.50
2023-06-14T09:41:51.312Z,53.70
2023-06-14T09:42:51.357Z,49.80
2023-06-14T09:43:51.304Z,59.80
2023-06-14T09:44:51.271Z,66.80
2023-06-14T09:45:51.241Z,67.20
2023-06-14T09:46:51.242Z,61.40
2023-06-14T09:48:05.615Z,59.50
2023-06-14T09:48:52.349Z,58.80
2023-06-14T09:49:51.240Z,57.70
2023-06-14T09:50:51.230Z,58.30
2023-06-14T09:51:51.242Z,52.70
2023-06-14T09:52:51.252Z,53.00
2023-06-14T09:53:51.181Z,60.60
2023-06-14T09:54:51.161Z,58.90
2023-06-14T09:55:51.162Z,61.10
2023-06-14T09:56:51.200Z,57.00
2023-06-14T09:57:51.159Z,40.20
2023-06-14T09:59:03.050Z,39.00
2023-06-14T09:59:52.099Z,41.00
2023-06-14T10:00:51.119Z,46.80
2023-06-14T10:01:51.208Z,54.00
2023-06-14T10:02:51.089Z,77.20
2023-06-14T10:04:52.057Z,190.70
2023-06-14T10:05:51.080Z,193.00
2023-06-14T10:06:51.081Z,160.00
2023-06-14T10:07:51.012Z,202.30
2023-06-14T10:08:51.014Z,212.20
2023-06-14T10:09:51.029Z,203.60
2023-06-14T10:10:51.048Z,206.00
2023-06-14T10:11:51.049Z,196.30
2023-06-14T10:12:50.932Z,168.00
2023-06-14T10:13:50.921Z,166.50
2023-06-14T10:14:50.952Z,157.20
2023-06-14T10:15:50.989Z,139.20
2023-06-14T10:16:50.988Z,146.90
2023-06-14T10:17:50.913Z,146.40
2023-06-14T10:18:50.893Z,147.20
2023-06-14T10:19:50.899Z,145.70
2023-06-14T10:20:50.925Z,153.70
2023-06-14T10:21:50.861Z,160.50
2023-06-14T10:22:50.816Z,152.90
2023-06-14T10:23:50.902Z,153.60
2023-06-14T10:24:50.869Z,156.20
2023-06-14T10:25:50.780Z,155.00
2023-06-14T10:26:50.801Z,189.70
2023-06-14T10:27:50.824Z,135.70
2023-06-14T10:28:50.792Z,82.70
2023-06-14T10:29:50.800Z,42.40
2023-06-14T10:30:50.754Z,32.00
2023-06-14T10:31:50.789Z,39.00
2023-06-14T10:32:50.738Z,30.20
2023-06-14T10:33:50.775Z,32.80
2023-06-14T10:34:50.761Z,33.60
2023-06-14T10:35:50.721Z,44.40
2023-06-14T10:36:50.679Z,70.80
2023-06-14T10:37:50.674Z,88.50
2023-06-14T10:38:50.716Z,85.60
2023-06-14T10:39:50.650Z,73.40
2023-06-14T10:40:50.621Z,77.00
2023-06-14T10:41:50.613Z,65.30
2023-06-14T10:42:50.603Z,60.00
2023-06-14T10:43:50.663Z,62.70
2023-06-14T10:44:50.597Z,54.30
2023-06-14T10:45:50.570Z,45.60
2023-06-14T10:46:50.591Z,52.90
2023-06-14T10:47:50.675Z,51.70
2023-06-14T10:48:50.612Z,51.90
2023-06-14T10:49:50.551Z,50.60
2023-06-14T10:50:50.518Z,49.20
2023-06-14T10:51:50.525Z,54.70
2023-06-14T10:52:50.560Z,56.20
2023-06-14T10:53:50.510Z,49.90
2023-06-14T10:54:50.477Z,53.90
2023-06-14T10:55:50.471Z,55.30
2023-06-14T10:56:50.465Z,46.80
2023-06-14T10:57:52.743Z,34.90
2023-06-14T10:58:50.448Z,35.50
2023-06-14T10:59:50.454Z,24.10
2023-06-14T11:00:50.415Z,22.70
2023-06-14T11:01:50.624Z,21.10
2023-06-14T11:02:50.445Z,19.90
2023-06-14T11:03:50.409Z,19.80
2023-06-14T11:04:50.347Z,18.30
2023-06-14T11:05:50.378Z,19.70
2023-06-14T11:06:50.419Z,19.20
2023-06-14T11:07:50.328Z,18.90
2023-06-14T11:08:50.312Z,18.80
2023-06-14T11:09:50.326Z,23.10
2023-06-14T11:10:50.322Z,22.70
2023-06-14T11:11:50.346Z,34.50
2023-06-14T11:12:50.270Z,37.50
2023-06-14T11:13:50.255Z,36.70
2023-06-14T11:14:50.257Z,39.30
2023-06-14T11:15:50.413Z,37.60
2023-06-14T11:16:50.246Z,42.00
2023-06-14T11:17:50.275Z,47.10
2023-06-14T11:18:50.198Z,52.00
2023-06-14T11:19:50.203Z,62.90
2023-06-14T11:20:50.254Z,74.60
2023-06-14T11:21:50.187Z,85.50
2023-06-14T11:22:50.153Z,91.20
2023-06-14T11:23:50.187Z,81.40
2023-06-14T11:24:50.140Z,66.10
2023-06-14T11:25:50.171Z,53.60
2023-06-14T11:26:50.126Z,52.40
2023-06-14T11:27:50.104Z,55.80
2023-06-14T11:28:50.104Z,56.80
2023-06-14T11:29:50.156Z,55.00
2023-06-14T11:30:50.105Z,50.40
2023-06-14T11:31:50.078Z,51.80
2023-06-14T11:32:50.084Z,50.60
2023-06-14T11:33:50.035Z,51.60
2023-06-14T11:34:50.040Z,53.00
2023-06-14T11:35:49.998Z,53.90
2023-06-14T11:36:49.996Z,53.00
2023-06-14T11:37:50.060Z,52.40
2023-06-14T11:38:50.048Z,54.50
2023-06-14T11:39:50.055Z,52.90
2023-06-14T11:40:49.964Z,57.80
2023-06-14T11:41:49.965Z,55.70
2023-06-14T11:42:49.931Z,56.60
2023-06-14T11:43:49.992Z,54.70
2023-06-14T11:44:49.903Z,53.70
2023-06-14T11:46:00.244Z,49.50
2023-06-14T11:46:50.955Z,50.60
2023-06-14T11:47:49.911Z,61.30
2023-06-14T11:48:49.933Z,63.20
2023-06-14T11:49:49.861Z,67.60
2023-06-14T11:50:49.858Z,37.00
2023-06-14T11:51:49.850Z,30.30
2023-06-14T11:52:49.872Z,38.80
2023-06-14T11:53:49.880Z,31.00
2023-06-14T11:54:49.809Z,31.20
2023-06-14T11:55:49.791Z,40.30
2023-06-14T11:56:49.790Z,49.20
2023-06-14T11:57:49.855Z,31.00
2023-06-14T11:58:49.792Z,26.90
2023-06-14T11:59:49.786Z,29.40
2023-06-14T12:00:49.815Z,22.80
2023-06-14T12:01:49.719Z,23.00
2023-06-14T12:02:49.866Z,27.90
2023-06-14T12:03:49.735Z,26.40
2023-06-14T12:04:49.677Z,35.30
2023-06-14T12:05:49.780Z,42.10
2023-06-14T12:06:49.715Z,37.40
2023-06-14T12:07:49.736Z,37.20
2023-06-14T12:08:49.630Z,33.90
2023-06-14T12:09:49.649Z,37.90
2023-06-14T12:10:49.672Z,35.90
2023-06-14T12:11:49.652Z,38.50
2023-06-14T12:12:49.583Z,39.70
2023-06-14T12:13:49.614Z,39.70
2023-06-14T12:14:49.681Z,37.10
2023-06-14T12:15:49.571Z,33.90
2023-06-14T12:16:49.626Z,31.00
2023-06-14T12:17:49.636Z,21.50
2023-06-14T12:18:49.540Z,18.70
2023-06-14T12:19:49.622Z,18.30
2023-06-14T12:20:49.576Z,19.30
2023-06-14T12:21:49.811Z,19.10
2023-06-14T12:22:49.522Z,19.00
2023-06-14T12:23:49.517Z,18.30
2023-06-14T12:24:49.484Z,18.10
2023-06-14T12:25:49.518Z,18.50
2023-06-14T12:26:49.437Z,17.70
2023-06-14T12:27:49.457Z,18.40
2023-06-14T12:28:49.485Z,18.80
2023-06-14T12:29:49.420Z,17.60
2023-06-14T12:30:49.447Z,19.90
2023-06-14T12:31:49.438Z,18.70
2023-06-14T12:32:49.388Z,18.80
2023-06-14T12:33:49.418Z,17.80
2023-06-14T12:34:49.455Z,18.60
2023-06-14T12:35:49.432Z,16.60
2023-06-14T12:36:49.334Z,17.40
2023-06-14T12:37:49.337Z,17.30
2023-06-14T12:38:49.326Z,18.30
2023-06-14T12:39:49.372Z,20.30
2023-06-14T12:40:49.300Z,19.20
2023-06-14T12:41:49.312Z,18.40